sensor_id;sensor_type;location;lat;lon;timestamp;temperature;humidity
51619;DHT22;38518;53.164;5.430;2022-11-27T00:02:22;6.30;99.90
51619;DHT22;38518;53.164;5.430;2022-11-27T00:04:48;6.00;99.90
51619;DHT22;38518;53.164;5.430;2022-11-27T00:07:13;6.00;99.90
51619;DHT22;38518;53.164;5.430;2022-11-27T00:09:39;6.60;99.90
51619;DHT22;38518;53.164;5.430;2022-11-27T00:12:05;6.00;97.50
51619;DHT22;38518;53.164;5.430;2022-11-27T00:14:31;6.00;99.00
51619;DHT22;38518;53.164;5.430;2022-11-27T00:16:56;6.00;99.90
51619;DHT22;38518;53.164;5.430;2022-11-27T00:19:24;6.20;94.80
51619;DHT22;38518;53.164;5.430;2022-11-27T00:21:50;5.90;94.30
51619;DHT22;38518;53.164;5.430;2022-11-27T00:24:15;6.00;93.40
51619;DHT22;38518;53.164;5.430;2022-11-27T00:26:41;5.90;87.00
51619;DHT22;38518;53.164;5.430;2022-11-27T00:29:08;6.50;84.90
51619;DHT22;38518;53.164;5.430;2022-11-27T00:31:35;5.80;83.20
51619;DHT22;38518;53.164;5.430;2022-11-27T00:34:03;6.00;79.50
51619;DHT22;38518;53.164;5.430;2022-11-27T00:36:31;6.10;76.60
51619;DHT22;38518;53.164;5.430;2022-11-27T00:38:57;6.40;77.30
51619;DHT22;38518;53.164;5.430;2022-11-27T00:41:25;5.70;83.00
51619;DHT22;38518;53.164;5.430;2022-11-27T00:43:52;5.80;87.20
51619;DHT22;38518;53.164;5.430;2022-11-27T00:46:27;5.90;77.10
51619;DHT22;38518;53.164;5.430;2022-11-27T00:48:52;5.90;78.80
51619;DHT22;38518;53.164;5.430;2022-11-27T00:51:21;5.90;55.80
51619;DHT22;38518;53.164;5.430;2022-11-27T00:53:47;5.80;50.40
51619;DHT22;38518;53.164;5.430;2022-11-27T00:56:27;6.30;42.00
51619;DHT22;38518;53.164;5.430;2022-11-27T00:58:54;5.80;40.60
51619;DHT22;38518;53.164;5.430;2022-11-27T01:01:28;5.80;22.60
51619;DHT22;38518;53.164;5.430;2022-11-27T01:03:56;5.90;24.50
51619;DHT22;38518;53.164;5.430;2022-11-27T01:06:22;5.80;17.70
51619;DHT22;38518;53.164;5.430;2022-11-27T01:08:48;6.00;17.70
51619;DHT22;38518;53.164;5.430;2022-11-27T01:11:18;6.90;4.50
51619;DHT22;38518;53.164;5.430;2022-11-27T01:13:44;5.80;11.30
51619;DHT22;38518;53.164;5.430;2022-11-27T01:16:13;6.70;12.70
51619;DHT22;38518;53.164;5.430;2022-11-27T01:18:40;5.80;14.90
51619;DHT22;38518;53.164;5.430;2022-11-27T01:21:07;6.20;10.70
51619;DHT22;38518;53.164;5.430;2022-11-27T01:23:33;7.30;2.30
51619;DHT22;38518;53.164;5.430;2022-11-27T01:26:00;5.90;1.00
51619;DHT22;38518;53.164;5.430;2022-11-27T01:28:26;5.80;1.00
51619;DHT22;38518;53.164;5.430;2022-11-27T01:30:52;6.40;1.00
51619;DHT22;38518;53.164;5.430;2022-11-27T01:33:18;5.90;1.00
51619;DHT22;38518;53.164;5.430;2022-11-27T01:35:55;5.90;1.00
51619;DHT22;38518;53.164;5.430;2022-11-27T01:38:22;5.90;1.00
51619;DHT22;38518;53.164;5.430;2022-11-27T01:40:48;5.90;1.00
51619;DHT22;38518;53.164;5.430;2022-11-27T01:43:15;5.90;1.00
51619;DHT22;38518;53.164;5.430;2022-11-27T01:45:42;6.50;1.00
51619;DHT22;38518;53.164;5.430;2022-11-27T01:48:10;5.90;1.00
51619;DHT22;38518;53.164;5.430;2022-11-27T01:50:38;6.00;1.00
51619;DHT22;38518;53.164;5.430;2022-11-27T01:53:12;6.00;1.00
51619;DHT22;38518;53.164;5.430;2022-11-27T01:55:43;6.00;1.00
51619;DHT22;38518;53.164;5.430;2022-11-27T01:58:14;6.00;1.00
51619;DHT22;38518;53.164;5.430;2022-11-27T02:00:41;6.00;1.00
51619;DHT22;38518;53.164;5.430;2022-11-27T02:03:07;6.90;1.00
51619;DHT22;38518;53.164;5.430;2022-11-27T02:05:33;6.80;1.00
51619;DHT22;38518;53.164;5.430;2022-11-27T02:08:04;6.10;1.00
51619;DHT22;38518;53.164;5.430;2022-11-27T02:13:16;6.10;1.00
51619;DHT22;38518;53.164;5.430;2022-11-27T02:18:55;6.10;1.00
51619;DHT22;38518;53.164;5.430;2022-11-27T02:21:40;6.10;99.90
51619;DHT22;38518;53.164;5.430;2022-11-27T02:29:34;6.20;99.90
51619;DHT22;38518;53.164;5.430;2022-11-27T02:32:09;6.50;99.90
51619;DHT22;38518;53.164;5.430;2022-11-27T02:40:12;6.20;99.90
51619;DHT22;38518;53.164;5.430;2022-11-27T02:42:43;6.30;99.90
51619;DHT22;38518;53.164;5.430;2022-11-27T02:45:13;6.20;99.90
51619;DHT22;38518;53.164;5.430;2022-11-27T02:47:40;6.30;99.90
51619;DHT22;38518;53.164;5.430;2022-11-27T02:50:11;6.40;99.90
51619;DHT22;38518;53.164;5.430;2022-11-27T02:52:39;6.10;99.90
51619;DHT22;38518;53.164;5.430;2022-11-27T02:55:08;6.50;99.90
51619;DHT22;38518;53.164;5.430;2022-11-27T02:57:36;6.20;99.90
51619;DHT22;38518;53.164;5.430;2022-11-27T03:00:04;6.50;99.90
51619;DHT22;38518;53.164;5.430;2022-11-27T03:02:39;6.20;99.90
51619;DHT22;38518;53.164;5.430;2022-11-27T03:05:10;7.20;99.90
51619;DHT22;38518;53.164;5.430;2022-11-27T03:07:58;6.20;99.90
51619;DHT22;38518;53.164;5.430;2022-11-27T03:10:29;6.20;99.90
51619;DHT22;38518;53.164;5.430;2022-11-27T03:12:57;6.90;99.90
51619;DHT22;38518;53.164;5.430;2022-11-27T03:15:24;6.20;99.90
51619;DHT22;38518;53.164;5.430;2022-11-27T03:18:02;6.20;99.90
51619;DHT22;38518;53.164;5.430;2022-11-27T03:20:38;6.80;99.90
51619;DHT22;38518;53.164;5.430;2022-11-27T03:23:05;6.20;99.90
51619;DHT22;38518;53.164;5.430;2022-11-27T03:25:31;6.20;99.90
51619;DHT22;38518;53.164;5.430;2022-11-27T03:28:03;6.20;99.90
51619;DHT22;38518;53.164;5.430;2022-11-27T03:30:30;6.30;99.90
51619;DHT22;38518;53.164;5.430;2022-11-27T03:32:56;6.20;99.90
51619;DHT22;38518;53.164;5.430;2022-11-27T03:35:24;6.20;98.60
51619;DHT22;38518;53.164;5.430;2022-11-27T03:37:50;7.20;82.20
51619;DHT22;38518;53.164;5.430;2022-11-27T03:40:18;6.20;62.20
51619;DHT22;38518;53.164;5.430;2022-11-27T03:45:42;6.30;61.00
51619;DHT22;38518;53.164;5.430;2022-11-27T03:48:25;6.20;50.00
51619;DHT22;38518;53.164;5.430;2022-11-27T03:51:19;6.30;37.30
51619;DHT22;38518;53.164;5.430;2022-11-27T03:54:09;6.20;44.00
51619;DHT22;38518;53.164;5.430;2022-11-27T03:56:43;6.20;34.80
51619;DHT22;38518;53.164;5.430;2022-11-27T03:59:22;6.40;62.10
51619;DHT22;38518;53.164;5.430;2022-11-27T04:01:49;6.30;34.10
51619;DHT22;38518;53.164;5.430;2022-11-27T04:04:15;6.30;52.20
51619;DHT22;38518;53.164;5.430;2022-11-27T04:06:41;6.20;45.00
51619;DHT22;38518;53.164;5.430;2022-11-27T04:09:07;6.60;49.30
51619;DHT22;38518;53.164;5.430;2022-11-27T04:11:32;6.30;21.00
51619;DHT22;38518;53.164;5.430;2022-11-27T04:13:58;6.30;2.30
51619;DHT22;38518;53.164;5.430;2022-11-27T04:16:24;6.20;1.00
51619;DHT22;38518;53.164;5.430;2022-11-27T04:18:50;6.30;1.00
51619;DHT22;38518;53.164;5.430;2022-11-27T04:21:16;7.40;1.00
51619;DHT22;38518;53.164;5.430;2022-11-27T04:23:42;6.30;1.00
51619;DHT22;38518;53.164;5.430;2022-11-27T04:26:08;6.30;1.00
51619;DHT22;38518;53.164;5.430;2022-11-27T04:28:33;6.90;1.00
51619;DHT22;38518;53.164;5.430;2022-11-27T04:30:59;7.20;1.00
51619;DHT22;38518;53.164;5.430;2022-11-27T04:33:25;6.90;1.00
51619;DHT22;38518;53.164;5.430;2022-11-27T04:35:51;6.40;1.00
51619;DHT22;38518;53.164;5.430;2022-11-27T04:38:18;6.40;1.00
51619;DHT22;38518;53.164;5.430;2022-11-27T04:40:44;7.20;1.00
51619;DHT22;38518;53.164;5.430;2022-11-27T04:43:10;8.00;1.00
51619;DHT22;38518;53.164;5.430;2022-11-27T04:45:36;6.40;1.00
51619;DHT22;38518;53.164;5.430;2022-11-27T04:48:02;6.70;1.00
51619;DHT22;38518;53.164;5.430;2022-11-27T04:50:28;6.40;1.00
51619;DHT22;38518;53.164;5.430;2022-11-27T04:52:54;7.10;1.00
51619;DHT22;38518;53.164;5.430;2022-11-27T04:55:19;6.30;1.00
51619;DHT22;38518;53.164;5.430;2022-11-27T04:57:45;6.40;1.00
51619;DHT22;38518;53.164;5.430;2022-11-27T05:00:11;6.40;1.00
51619;DHT22;38518;53.164;5.430;2022-11-27T05:02:37;6.40;1.00
51619;DHT22;38518;53.164;5.430;2022-11-27T05:05:04;7.10;1.00
51619;DHT22;38518;53.164;5.430;2022-11-27T05:07:30;6.40;1.00
51619;DHT22;38518;53.164;5.430;2022-11-27T05:09:55;6.30;1.00
51619;DHT22;38518;53.164;5.430;2022-11-27T05:12:21;6.30;1.00
51619;DHT22;38518;53.164;5.430;2022-11-27T05:14:47;6.40;1.00
51619;DHT22;38518;53.164;5.430;2022-11-27T05:17:13;6.80;1.00
51619;DHT22;38518;53.164;5.430;2022-11-27T05:19:38;6.30;1.00
51619;DHT22;38518;53.164;5.430;2022-11-27T05:22:04;7.60;1.00
51619;DHT22;38518;53.164;5.430;2022-11-27T05:24:30;6.40;1.00
51619;DHT22;38518;53.164;5.430;2022-11-27T05:26:56;6.40;1.00
51619;DHT22;38518;53.164;5.430;2022-11-27T05:29:23;7.20;1.00
51619;DHT22;38518;53.164;5.430;2022-11-27T05:31:49;7.50;1.00
51619;DHT22;38518;53.164;5.430;2022-11-27T05:34:15;6.80;1.00
51619;DHT22;38518;53.164;5.430;2022-11-27T05:36:41;6.30;1.00
51619;DHT22;38518;53.164;5.430;2022-11-27T05:39:08;6.70;1.00
51619;DHT22;38518;53.164;5.430;2022-11-27T05:41:36;6.40;1.00
51619;DHT22;38518;53.164;5.430;2022-11-27T05:44:02;6.40;1.00
51619;DHT22;38518;53.164;5.430;2022-11-27T05:46:28;8.20;1.00
51619;DHT22;38518;53.164;5.430;2022-11-27T05:48:53;6.40;1.00
51619;DHT22;38518;53.164;5.430;2022-11-27T05:51:19;6.60;99.90
51619;DHT22;38518;53.164;5.430;2022-11-27T05:53:45;6.40;99.90
51619;DHT22;38518;53.164;5.430;2022-11-27T05:56:13;6.30;99.90
51619;DHT22;38518;53.164;5.430;2022-11-27T05:58:41;6.40;99.90
51619;DHT22;38518;53.164;5.430;2022-11-27T06:01:07;6.40;99.90
51619;DHT22;38518;53.164;5.430;2022-11-27T06:03:33;6.60;99.90
51619;DHT22;38518;53.164;5.430;2022-11-27T06:06:07;6.50;99.90
51619;DHT22;38518;53.164;5.430;2022-11-27T06:08:34;6.40;99.90
51619;DHT22;38518;53.164;5.430;2022-11-27T06:11:08;6.40;99.90
51619;DHT22;38518;53.164;5.430;2022-11-27T06:13:34;6.40;99.90
51619;DHT22;38518;53.164;5.430;2022-11-27T06:16:20;6.80;1.00
51619;DHT22;38518;53.164;5.430;2022-11-27T06:18:51;6.40;99.90
51619;DHT22;38518;53.164;5.430;2022-11-27T06:21:18;7.10;1.00
51619;DHT22;38518;53.164;5.430;2022-11-27T06:23:44;7.60;1.00
51619;DHT22;38518;53.164;5.430;2022-11-27T06:26:18;6.30;1.00
51619;DHT22;38518;53.164;5.430;2022-11-27T06:28:46;6.30;1.00
51619;DHT22;38518;53.164;5.430;2022-11-27T06:31:17;6.30;1.00
51619;DHT22;38518;53.164;5.430;2022-11-27T06:33:44;6.30;1.00
51619;DHT22;38518;53.164;5.430;2022-11-27T06:36:10;6.50;1.00
51619;DHT22;38518;53.164;5.430;2022-11-27T06:38:37;6.30;1.00
51619;DHT22;38518;53.164;5.430;2022-11-27T06:41:10;6.30;1.00
51619;DHT22;38518;53.164;5.430;2022-11-27T06:43:37;6.30;1.00
51619;DHT22;38518;53.164;5.430;2022-11-27T06:46:04;6.20;1.00
51619;DHT22;38518;53.164;5.430;2022-11-27T06:48:31;6.30;1.00
51619;DHT22;38518;53.164;5.430;2022-11-27T06:51:04;7.00;1.00
51619;DHT22;38518;53.164;5.430;2022-11-27T06:53:33;6.20;1.00
51619;DHT22;38518;53.164;5.430;2022-11-27T06:56:02;6.30;1.00
51619;DHT22;38518;53.164;5.430;2022-11-27T06:58:28;7.20;1.00
51619;DHT22;38518;53.164;5.430;2022-11-27T07:01:02;6.10;1.00
51619;DHT22;38518;53.164;5.430;2022-11-27T07:03:28;6.10;1.00
51619;DHT22;38518;53.164;5.430;2022-11-27T07:05:53;6.10;1.00
51619;DHT22;38518;53.164;5.430;2022-11-27T07:08:20;6.10;1.00
51619;DHT22;38518;53.164;5.430;2022-11-27T07:10:46;6.10;1.00
51619;DHT22;38518;53.164;5.430;2022-11-27T07:13:12;6.90;1.00
51619;DHT22;38518;53.164;5.430;2022-11-27T07:15:38;6.10;1.00
51619;DHT22;38518;53.164;5.430;2022-11-27T07:18:03;6.10;1.00
51619;DHT22;38518;53.164;5.430;2022-11-27T07:20:29;6.10;1.00
51619;DHT22;38518;53.164;5.430;2022-11-27T07:22:55;6.10;1.00
51619;DHT22;38518;53.164;5.430;2022-11-27T07:25:21;6.20;1.00
51619;DHT22;38518;53.164;5.430;2022-11-27T07:27:46;6.10;1.00
51619;DHT22;38518;53.164;5.430;2022-11-27T07:30:13;6.10;1.00
51619;DHT22;38518;53.164;5.430;2022-11-27T07:32:39;6.10;1.00
51619;DHT22;38518;53.164;5.430;2022-11-27T07:35:05;6.10;1.00
51619;DHT22;38518;53.164;5.430;2022-11-27T07:37:34;6.10;1.00
51619;DHT22;38518;53.164;5.430;2022-11-27T07:40:00;6.10;1.00
51619;DHT22;38518;53.164;5.430;2022-11-27T07:42:27;6.10;1.00
51619;DHT22;38518;53.164;5.430;2022-11-27T07:44:52;6.00;1.00
51619;DHT22;38518;53.164;5.430;2022-11-27T07:47:18;6.00;1.00
51619;DHT22;38518;53.164;5.430;2022-11-27T07:49:44;6.60;1.00
51619;DHT22;38518;53.164;5.430;2022-11-27T07:52:10;6.90;1.00
51619;DHT22;38518;53.164;5.430;2022-11-27T07:54:37;5.90;1.00
51619;DHT22;38518;53.164;5.430;2022-11-27T07:57:04;6.50;37.60
51619;DHT22;38518;53.164;5.430;2022-11-27T07:59:29;5.90;50.10
51619;DHT22;38518;53.164;5.430;2022-11-27T08:01:55;7.70;77.20
51619;DHT22;38518;53.164;5.430;2022-11-27T08:04:21;6.30;99.90
51619;DHT22;38518;53.164;5.430;2022-11-27T08:06:47;5.80;99.90
51619;DHT22;38518;53.164;5.430;2022-11-27T08:09:14;6.80;99.90
51619;DHT22;38518;53.164;5.430;2022-11-27T08:11:39;6.90;99.90
51619;DHT22;38518;53.164;5.430;2022-11-27T08:14:06;6.40;99.90
51619;DHT22;38518;53.164;5.430;2022-11-27T08:16:33;5.80;99.90
51619;DHT22;38518;53.164;5.430;2022-11-27T08:18:59;5.90;99.90
51619;DHT22;38518;53.164;5.430;2022-11-27T08:21:29;5.70;99.90
51619;DHT22;38518;53.164;5.430;2022-11-27T08:23:56;5.70;99.90
51619;DHT22;38518;53.164;5.430;2022-11-27T08:26:22;6.70;99.90
51619;DHT22;38518;53.164;5.430;2022-11-27T08:28:51;6.30;99.90
51619;DHT22;38518;53.164;5.430;2022-11-27T08:31:17;5.70;99.90
51619;DHT22;38518;53.164;5.430;2022-11-27T08:33:45;5.90;99.90
51619;DHT22;38518;53.164;5.430;2022-11-27T08:36:11;5.70;99.90
51619;DHT22;38518;53.164;5.430;2022-11-27T08:38:36;5.70;99.90
51619;DHT22;38518;53.164;5.430;2022-11-27T08:41:04;7.40;99.90
51619;DHT22;38518;53.164;5.430;2022-11-27T08:43:31;5.70;99.90
51619;DHT22;38518;53.164;5.430;2022-11-27T08:45:57;5.80;99.90
51619;DHT22;38518;53.164;5.430;2022-11-27T08:48:23;5.80;99.90
51619;DHT22;38518;53.164;5.430;2022-11-27T08:50:50;5.70;99.90
51619;DHT22;38518;53.164;5.430;2022-11-27T08:53:17;6.00;99.90
51619;DHT22;38518;53.164;5.430;2022-11-27T08:55:44;5.80;99.90
51619;DHT22;38518;53.164;5.430;2022-11-27T08:58:10;5.80;99.90
51619;DHT22;38518;53.164;5.430;2022-11-27T09:00:36;6.30;1.00
51619;DHT22;38518;53.164;5.430;2022-11-27T09:03:03;5.90;99.90
51619;DHT22;38518;53.164;5.430;2022-11-27T09:05:29;5.80;1.00
51619;DHT22;38518;53.164;5.430;2022-11-27T09:07:55;5.80;1.00
51619;DHT22;38518;53.164;5.430;2022-11-27T09:10:22;5.80;1.00
51619;DHT22;38518;53.164;5.430;2022-11-27T09:12:48;5.80;1.00
51619;DHT22;38518;53.164;5.430;2022-11-27T09:15:15;5.80;1.00
51619;DHT22;38518;53.164;5.430;2022-11-27T09:17:40;5.90;1.00
51619;DHT22;38518;53.164;5.430;2022-11-27T09:20:07;5.80;1.00
51619;DHT22;38518;53.164;5.430;2022-11-27T09:22:33;5.90;1.00
51619;DHT22;38518;53.164;5.430;2022-11-27T09:24:59;6.70;1.00
51619;DHT22;38518;53.164;5.430;2022-11-27T09:27:25;5.90;1.00
51619;DHT22;38518;53.164;5.430;2022-11-27T09:29:51;6.80;1.00
51619;DHT22;38518;53.164;5.430;2022-11-27T09:32:18;5.90;1.00
51619;DHT22;38518;53.164;5.430;2022-11-27T09:34:43;6.30;1.00
51619;DHT22;38518;53.164;5.430;2022-11-27T09:37:09;6.40;1.00
51619;DHT22;38518;53.164;5.430;2022-11-27T09:39:35;5.20;1.00
51619;DHT22;38518;53.164;5.430;2022-11-27T09:42:05;7.70;1.00
51619;DHT22;38518;53.164;5.430;2022-11-27T09:49:59;6.00;1.00
51619;DHT22;38518;53.164;5.430;2022-11-27T09:52:43;5.90;1.00
51619;DHT22;38518;53.164;5.430;2022-11-27T09:55:30;5.90;1.00
51619;DHT22;38518;53.164;5.430;2022-11-27T09:58:04;6.10;1.00
51619;DHT22;38518;53.164;5.430;2022-11-27T10:00:31;6.00;1.00
51619;DHT22;38518;53.164;5.430;2022-11-27T10:02:57;5.90;1.00
51619;DHT22;38518;53.164;5.430;2022-11-27T10:05:34;6.10;1.00
51619;DHT22;38518;53.164;5.430;2022-11-27T10:11:17;6.00;13.20
51619;DHT22;38518;53.164;5.430;2022-11-27T10:13:56;6.00;30.00
51619;DHT22;38518;53.164;5.430;2022-11-27T10:16:37;6.00;37.10
51619;DHT22;38518;53.164;5.430;2022-11-27T10:30:19;6.00;99.90
51619;DHT22;38518;53.164;5.430;2022-11-27T10:32:48;6.00;99.90
51619;DHT22;38518;53.164;5.430;2022-11-27T10:35:20;5.70;99.90
51619;DHT22;38518;53.164;5.430;2022-11-27T10:40:53;6.00;99.90
51619;DHT22;38518;53.164;5.430;2022-11-27T10:43:23;5.90;99.90
51619;DHT22;38518;53.164;5.430;2022-11-27T10:48:33;6.90;99.90
51619;DHT22;38518;53.164;5.430;2022-11-27T10:50:59;6.00;99.90
51619;DHT22;38518;53.164;5.430;2022-11-27T10:53:31;6.00;99.90
51619;DHT22;38518;53.164;5.430;2022-11-27T11:01:17;6.10;99.90
51619;DHT22;38518;53.164;5.430;2022-11-27T11:03:43;7.90;99.90
51619;DHT22;38518;53.164;5.430;2022-11-27T11:06:18;6.10;99.90
51619;DHT22;38518;53.164;5.430;2022-11-27T11:08:45;6.20;99.90
51619;DHT22;38518;53.164;5.430;2022-11-27T11:11:11;6.60;99.90
51619;DHT22;38518;53.164;5.430;2022-11-27T11:16:21;6.10;99.90
51619;DHT22;38518;53.164;5.430;2022-11-27T11:18:52;6.20;99.90
51619;DHT22;38518;53.164;5.430;2022-11-27T11:21:38;6.20;99.90
51619;DHT22;38518;53.164;5.430;2022-11-27T11:24:30;6.10;99.90
51619;DHT22;38518;53.164;5.430;2022-11-27T11:27:24;6.20;99.90
51619;DHT22;38518;53.164;5.430;2022-11-27T11:30:04;6.20;99.90
51619;DHT22;38518;53.164;5.430;2022-11-27T11:32:34;6.20;99.90
51619;DHT22;38518;53.164;5.430;2022-11-27T11:35:04;6.20;99.90
51619;DHT22;38518;53.164;5.430;2022-11-27T11:37:35;6.20;99.90
51619;DHT22;38518;53.164;5.430;2022-11-27T11:40:02;6.20;99.90
51619;DHT22;38518;53.164;5.430;2022-11-27T11:42:32;6.20;99.90
51619;DHT22;38518;53.164;5.430;2022-11-27T11:47:52;6.20;99.90
51619;DHT22;38518;53.164;5.430;2022-11-27T11:58:48;6.20;99.90
51619;DHT22;38518;53.164;5.430;2022-11-27T12:01:31;6.20;99.90
51619;DHT22;38518;53.164;5.430;2022-11-27T12:04:39;7.60;99.90
51619;DHT22;38518;53.164;5.430;2022-11-27T12:07:15;6.30;99.90
51619;DHT22;38518;53.164;5.430;2022-11-27T12:18:36;6.30;99.90
51619;DHT22;38518;53.164;5.430;2022-11-27T12:21:19;6.30;99.90
51619;DHT22;38518;53.164;5.430;2022-11-27T12:24:00;6.30;99.90
51619;DHT22;38518;53.164;5.430;2022-11-27T12:29:38;6.20;99.90
51619;DHT22;38518;53.164;5.430;2022-11-27T12:35:19;7.40;99.90
51619;DHT22;38518;53.164;5.430;2022-11-27T12:37:57;6.20;99.90
51619;DHT22;38518;53.164;5.430;2022-11-27T12:41:12;6.30;99.90
51619;DHT22;38518;53.164;5.430;2022-11-27T12:43:30;6.30;99.90
51619;DHT22;38518;53.164;5.430;2022-11-27T12:49:04;6.30;99.90
51619;DHT22;38518;53.164;5.430;2022-11-27T12:51:53;6.30;99.90
51619;DHT22;38518;53.164;5.430;2022-11-27T12:54:25;6.20;99.90
51619;DHT22;38518;53.164;5.430;2022-11-27T12:56:57;6.50;99.90
51619;DHT22;38518;53.164;5.430;2022-11-27T12:59:31;6.30;99.90
51619;DHT22;38518;53.164;5.430;2022-11-27T13:04:44;6.30;99.90
51619;DHT22;38518;53.164;5.430;2022-11-27T13:07:14;6.30;99.90
51619;DHT22;38518;53.164;5.430;2022-11-27T13:15:38;6.30;99.90
51619;DHT22;38518;53.164;5.430;2022-11-27T13:20:59;6.30;99.90
51619;DHT22;38518;53.164;5.430;2022-11-27T13:23:30;6.30;99.90
51619;DHT22;38518;53.164;5.430;2022-11-27T13:25:57;7.10;99.90
51619;DHT22;38518;53.164;5.430;2022-11-27T13:28:37;6.40;99.90
51619;DHT22;38518;53.164;5.430;2022-11-27T13:31:06;6.30;99.90
51619;DHT22;38518;53.164;5.430;2022-11-27T13:33:37;6.30;99.90
51619;DHT22;38518;53.164;5.430;2022-11-27T13:36:06;6.40;99.90
51619;DHT22;38518;53.164;5.430;2022-11-27T13:38:41;6.30;99.90
51619;DHT22;38518;53.164;5.430;2022-11-27T13:41:07;6.70;99.90
51619;DHT22;38518;53.164;5.430;2022-11-27T13:43:45;6.40;99.90
51619;DHT22;38518;53.164;5.430;2022-11-27T13:46:22;6.40;99.90
51619;DHT22;38518;53.164;5.430;2022-11-27T13:48:58;6.40;99.90
51619;DHT22;38518;53.164;5.430;2022-11-27T13:51:30;6.60;99.90
51619;DHT22;38518;53.164;5.430;2022-11-27T13:56:32;6.50;99.90
51619;DHT22;38518;53.164;5.430;2022-11-27T13:58:57;6.50;99.90
51619;DHT22;38518;53.164;5.430;2022-11-27T14:01:24;6.40;99.90
51619;DHT22;38518;53.164;5.430;2022-11-27T14:03:50;6.50;99.90
51619;DHT22;38518;53.164;5.430;2022-11-27T14:06:27;6.50;99.90
51619;DHT22;38518;53.164;5.430;2022-11-27T14:09:03;6.50;99.90
51619;DHT22;38518;53.164;5.430;2022-11-27T14:11:42;6.50;99.90
51619;DHT22;38518;53.164;5.430;2022-11-27T14:14:21;6.50;99.90
51619;DHT22;38518;53.164;5.430;2022-11-27T14:17:00;6.50;1.00
51619;DHT22;38518;53.164;5.430;2022-11-27T14:19:43;6.50;1.00
51619;DHT22;38518;53.164;5.430;2022-11-27T14:25:18;6.40;1.00
51619;DHT22;38518;53.164;5.430;2022-11-27T14:27:45;6.40;99.90
51619;DHT22;38518;53.164;5.430;2022-11-27T14:30:33;6.40;99.90
51619;DHT22;38518;53.164;5.430;2022-11-27T14:33:02;6.40;99.90
51619;DHT22;38518;53.164;5.430;2022-11-27T14:35:28;6.30;99.90
51619;DHT22;38518;53.164;5.430;2022-11-27T14:37:53;6.10;99.90
51619;DHT22;38518;53.164;5.430;2022-11-27T14:40:26;6.40;99.90
51619;DHT22;38518;53.164;5.430;2022-11-27T14:42:52;6.40;99.90
51619;DHT22;38518;53.164;5.430;2022-11-27T14:45:20;6.70;99.90
51619;DHT22;38518;53.164;5.430;2022-11-27T14:47:51;6.30;99.90
51619;DHT22;38518;53.164;5.430;2022-11-27T14:50:20;6.30;99.90
51619;DHT22;38518;53.164;5.430;2022-11-27T14:52:54;6.30;99.90
51619;DHT22;38518;53.164;5.430;2022-11-27T14:55:20;6.30;99.90
51619;DHT22;38518;53.164;5.430;2022-11-27T14:57:48;6.30;99.90
51619;DHT22;38518;53.164;5.430;2022-11-27T15:00:23;6.30;99.90
51619;DHT22;38518;53.164;5.430;2022-11-27T15:02:52;6.30;99.90
51619;DHT22;38518;53.164;5.430;2022-11-27T15:05:21;6.40;99.90
51619;DHT22;38518;53.164;5.430;2022-11-27T15:07:47;7.70;99.90
51619;DHT22;38518;53.164;5.430;2022-11-27T15:10:30;6.20;99.90
51619;DHT22;38518;53.164;5.430;2022-11-27T15:12:58;6.30;99.90
51619;DHT22;38518;53.164;5.430;2022-11-27T15:15:26;6.20;99.90
51619;DHT22;38518;53.164;5.430;2022-11-27T15:17:58;6.20;99.90
51619;DHT22;38518;53.164;5.430;2022-11-27T15:20:30;6.20;99.90
51619;DHT22;38518;53.164;5.430;2022-11-27T15:22:59;6.40;99.90
51619;DHT22;38518;53.164;5.430;2022-11-27T15:25:37;6.20;99.90
51619;DHT22;38518;53.164;5.430;2022-11-27T15:28:33;6.20;99.90
51619;DHT22;38518;53.164;5.430;2022-11-27T15:31:01;6.10;99.90
51619;DHT22;38518;53.164;5.430;2022-11-27T15:33:32;6.10;99.90
51619;DHT22;38518;53.164;5.430;2022-11-27T15:38:39;6.20;99.90
51619;DHT22;38518;53.164;5.430;2022-11-27T15:41:19;6.80;99.90
51619;DHT22;38518;53.164;5.430;2022-11-27T15:43:45;6.60;99.90
51619;DHT22;38518;53.164;5.430;2022-11-27T15:46:13;6.10;99.90
51619;DHT22;38518;53.164;5.430;2022-11-27T15:48:39;6.10;99.90
51619;DHT22;38518;53.164;5.430;2022-11-27T15:51:05;6.10;99.90
51619;DHT22;38518;53.164;5.430;2022-11-27T15:53:31;6.10;99.90
51619;DHT22;38518;53.164;5.430;2022-11-27T15:55:57;6.10;99.90
51619;DHT22;38518;53.164;5.430;2022-11-27T15:58:23;6.40;99.90
51619;DHT22;38518;53.164;5.430;2022-11-27T16:00:48;6.80;99.90
51619;DHT22;38518;53.164;5.430;2022-11-27T16:03:14;7.40;99.90
51619;DHT22;38518;53.164;5.430;2022-11-27T16:05:40;6.70;99.90
51619;DHT22;38518;53.164;5.430;2022-11-27T16:08:06;6.00;99.90
51619;DHT22;38518;53.164;5.430;2022-11-27T16:10:38;6.50;99.90
51619;DHT22;38518;53.164;5.430;2022-11-27T16:13:05;6.00;99.90
51619;DHT22;38518;53.164;5.430;2022-11-27T16:15:31;6.00;99.90
51619;DHT22;38518;53.164;5.430;2022-11-27T16:17:57;6.00;99.90
51619;DHT22;38518;53.164;5.430;2022-11-27T16:20:23;6.00;99.90
51619;DHT22;38518;53.164;5.430;2022-11-27T16:22:49;5.90;99.90
51619;DHT22;38518;53.164;5.430;2022-11-27T16:25:15;6.30;99.90
51619;DHT22;38518;53.164;5.430;2022-11-27T16:27:41;6.00;99.90
51619;DHT22;38518;53.164;5.430;2022-11-27T16:30:07;6.20;99.90
51619;DHT22;38518;53.164;5.430;2022-11-27T16:32:36;6.00;99.90
51619;DHT22;38518;53.164;5.430;2022-11-27T16:35:02;6.10;99.90
51619;DHT22;38518;53.164;5.430;2022-11-27T16:37:28;6.10;99.90
51619;DHT22;38518;53.164;5.430;2022-11-27T16:39:54;6.10;99.90
51619;DHT22;38518;53.164;5.430;2022-11-27T16:42:20;6.10;99.90
51619;DHT22;38518;53.164;5.430;2022-11-27T16:44:45;6.50;99.90
51619;DHT22;38518;53.164;5.430;2022-11-27T16:47:11;6.20;99.90
51619;DHT22;38518;53.164;5.430;2022-11-27T16:49:38;6.10;99.90
51619;DHT22;38518;53.164;5.430;2022-11-27T16:52:03;6.10;99.90
51619;DHT22;38518;53.164;5.430;2022-11-27T16:54:29;6.10;99.90
51619;DHT22;38518;53.164;5.430;2022-11-27T16:56:55;6.10;99.90
51619;DHT22;38518;53.164;5.430;2022-11-27T16:59:20;6.10;99.90
51619;DHT22;38518;53.164;5.430;2022-11-27T17:01:46;6.20;99.90
51619;DHT22;38518;53.164;5.430;2022-11-27T17:04:18;6.20;99.90
51619;DHT22;38518;53.164;5.430;2022-11-27T17:06:45;6.20;99.90
51619;DHT22;38518;53.164;5.430;2022-11-27T17:09:10;6.20;99.90
51619;DHT22;38518;53.164;5.430;2022-11-27T17:11:41;7.50;99.90
51619;DHT22;38518;53.164;5.430;2022-11-27T17:14:07;6.10;99.90
51619;DHT22;38518;53.164;5.430;2022-11-27T17:16:34;6.20;99.90
51619;DHT22;38518;53.164;5.430;2022-11-27T17:19:00;6.70;99.90
51619;DHT22;38518;53.164;5.430;2022-11-27T17:21:29;6.20;99.90
51619;DHT22;38518;53.164;5.430;2022-11-27T17:23:56;6.50;99.90
51619;DHT22;38518;53.164;5.430;2022-11-27T17:26:23;6.20;99.90
51619;DHT22;38518;53.164;5.430;2022-11-27T17:28:49;6.20;99.90
51619;DHT22;38518;53.164;5.430;2022-11-27T17:31:18;6.60;99.90
51619;DHT22;38518;53.164;5.430;2022-11-27T17:33:45;6.20;99.90
51619;DHT22;38518;53.164;5.430;2022-11-27T17:36:11;6.20;99.90
51619;DHT22;38518;53.164;5.430;2022-11-27T17:38:37;6.20;99.90
51619;DHT22;38518;53.164;5.430;2022-11-27T17:41:09;6.20;99.90
51619;DHT22;38518;53.164;5.430;2022-11-27T17:43:36;6.60;99.90
51619;DHT22;38518;53.164;5.430;2022-11-27T17:46:15;6.10;99.90
51619;DHT22;38518;53.164;5.430;2022-11-27T17:48:41;6.20;99.90